sensor_id;sensor_type;location;lat;lon;timestamp;P1;durP1;ratioP1;P2;durP2;ratioP2
62709;SDS011;48770;51.624;5.886;2023-04-07T00:00:16;0.40;;;0.22;;
62709;SDS011;48770;51.624;5.886;2023-04-07T00:02:42;0.93;;;0.50;;
62709;SDS011;48770;51.624;5.886;2023-04-07T00:05:07;1.98;;;0.30;;
62709;SDS011;48770;51.624;5.886;2023-04-07T00:07:32;0.45;;;0.28;;
62709;SDS011;48770;51.624;5.886;2023-04-07T00:09:58;0.30;;;0.28;;
62709;SDS011;48770;51.624;5.886;2023-04-07T00:12:23;0.38;;;0.20;;
62709;SDS011;48770;51.624;5.886;2023-04-07T00:14:48;0.30;;;0.25;;
62709;SDS011;48770;51.624;5.886;2023-04-07T00:17:14;0.30;;;0.20;;
62709;SDS011;48770;51.624;5.886;2023-04-07T00:19:39;0.38;;;0.30;;
62709;SDS011;48770;51.624;5.886;2023-04-07T00:22:05;0.35;;;0.35;;
62709;SDS011;48770;51.624;5.886;2023-04-07T00:24:30;0.40;;;0.30;;
62709;SDS011;48770;51.624;5.886;2023-04-07T00:26:56;0.45;;;0.30;;
62709;SDS011;48770;51.624;5.886;2023-04-07T00:29:21;0.20;;;0.20;;
62709;SDS011;48770;51.624;5.886;2023-04-07T00:31:47;0.40;;;0.20;;
62709;SDS011;48770;51.624;5.886;2023-04-07T00:34:12;0.20;;;0.20;;
62709;SDS011;48770;51.624;5.886;2023-04-07T00:36:38;0.25;;;0.20;;
62709;SDS011;48770;51.624;5.886;2023-04-07T00:39:03;0.10;;;0.10;;
62709;SDS011;48770;51.624;5.886;2023-04-07T00:41:28;0.60;;;0.32;;
62709;SDS011;48770;51.624;5.886;2023-04-07T00:43:54;0.50;;;0.30;;
62709;SDS011;48770;51.624;5.886;2023-04-07T00:46:19;0.32;;;0.22;;
62709;SDS011;48770;51.624;5.886;2023-04-07T00:48:47;0.60;;;0.30;;
62709;SDS011;48770;51.624;5.886;2023-04-07T00:51:13;0.57;;;0.20;;
62709;SDS011;48770;51.624;5.886;2023-04-07T00:53:39;0.25;;;0.20;;
62709;SDS011;48770;51.624;5.886;2023-04-07T00:56:05;0.10;;;0.10;;
62709;SDS011;48770;51.624;5.886;2023-04-07T00:58:30;0.40;;;0.20;;
62709;SDS011;48770;51.624;5.886;2023-04-07T01:01:06;0.30;;;0.20;;
62709;SDS011;48770;51.624;5.886;2023-04-07T01:03:35;0.17;;;0.17;;
62709;SDS011;48770;51.624;5.886;2023-04-07T01:06:08;0.17;;;0.10;;
62709;SDS011;48770;51.624;5.886;2023-04-07T01:11:15;0.40;;;0.20;;
62709;SDS011;48770;51.624;5.886;2023-04-07T01:14:02;0.20;;;0.15;;
62709;SDS011;48770;51.624;5.886;2023-04-07T01:19:11;0.10;;;0.05;;
62709;SDS011;48770;51.624;5.886;2023-04-07T01:21:42;0.20;;;0.10;;
62709;SDS011;48770;51.624;5.886;2023-04-07T01:24:21;0.10;;;0.10;;
62709;SDS011;48770;51.624;5.886;2023-04-07T01:26:59;0.63;;;0.10;;
62709;SDS011;48770;51.624;5.886;2023-04-07T01:29:38;0.45;;;0.20;;
62709;SDS011;48770;51.624;5.886;2023-04-07T01:32:11;0.30;;;0.10;;
62709;SDS011;48770;51.624;5.886;2023-04-07T01:34:39;0.47;;;0.10;;
62709;SDS011;48770;51.624;5.886;2023-04-07T01:37:05;0.17;;;0.10;;
62709;SDS011;48770;51.624;5.886;2023-04-07T01:39:31;0.22;;;0.10;;
62709;SDS011;48770;51.624;5.886;2023-04-07T01:41:58;0.43;;;0.20;;
62709;SDS011;48770;51.624;5.886;2023-04-07T01:44:26;0.30;;;0.20;;
62709;SDS011;48770;51.624;5.886;2023-04-07T01:46:52;0.30;;;0.17;;
62709;SDS011;48770;51.624;5.886;2023-04-07T01:49:19;0.30;;;0.20;;
62709;SDS011;48770;51.624;5.886;2023-04-07T01:51:46;0.20;;;0.10;;
62709;SDS011;48770;51.624;5.886;2023-04-07T01:54:15;0.00;;;0.00;;
62709;SDS011;48770;51.624;5.886;2023-04-07T01:56:42;0.10;;;0.10;;
62709;SDS011;48770;51.624;5.886;2023-04-07T01:59:09;0.50;;;0.10;;
62709;SDS011;48770;51.624;5.886;2023-04-07T02:01:34;0.32;;;0.00;;
62709;SDS011;48770;51.624;5.886;2023-04-07T02:06:58;0.10;;;0.10;;
62709;SDS011;48770;51.624;5.886;2023-04-07T02:09:29;0.38;;;0.20;;
62709;SDS011;48770;51.624;5.886;2023-04-07T02:11:56;1.10;;;0.15;;
62709;SDS011;48770;51.624;5.886;2023-04-07T02:14:23;0.10;;;0.10;;
62709;SDS011;48770;51.624;5.886;2023-04-07T02:16:49;0.20;;;0.10;;
62709;SDS011;48770;51.624;5.886;2023-04-07T02:19:16;0.43;;;0.10;;
62709;SDS011;48770;51.624;5.886;2023-04-07T02:21:42;0.10;;;0.10;;
62709;SDS011;48770;51.624;5.886;2023-04-07T02:24:10;0.17;;;0.08;;
62709;SDS011;48770;51.624;5.886;2023-04-07T02:26:36;0.15;;;0.10;;
62709;SDS011;48770;51.624;5.886;2023-04-07T02:29:04;0.10;;;0.10;;
62709;SDS011;48770;51.624;5.886;2023-04-07T02:31:30;0.30;;;0.10;;
62709;SDS011;48770;51.624;5.886;2023-04-07T02:33:55;0.63;;;0.10;;
62709;SDS011;48770;51.624;5.886;2023-04-07T02:36:21;0.10;;;0.10;;
62709;SDS011;48770;51.624;5.886;2023-04-07T02:38:46;0.20;;;0.10;;
62709;SDS011;48770;51.624;5.886;2023-04-07T02:41:12;0.20;;;0.10;;
62709;SDS011;48770;51.624;5.886;2023-04-07T02:43:37;0.52;;;0.10;;
62709;SDS011;48770;51.624;5.886;2023-04-07T02:46:02;0.10;;;0.10;;
62709;SDS011;48770;51.624;5.886;2023-04-07T02:48:28;0.00;;;0.00;;
62709;SDS011;48770;51.624;5.886;2023-04-07T02:50:53;0.22;;;0.20;;
62709;SDS011;48770;51.624;5.886;2023-04-07T02:53:18;0.20;;;0.10;;
62709;SDS011;48770;51.624;5.886;2023-04-07T02:55:44;0.20;;;0.10;;
62709;SDS011;48770;51.624;5.886;2023-04-07T02:58:10;0.57;;;0.20;;
62709;SDS011;48770;51.624;5.886;2023-04-07T03:00:35;0.40;;;0.17;;
62709;SDS011;48770;51.624;5.886;2023-04-07T03:03:00;0.35;;;0.10;;
62709;SDS011;48770;51.624;5.886;2023-04-07T03:05:26;0.32;;;0.15;;
62709;SDS011;48770;51.624;5.886;2023-04-07T03:07:51;1.00;;;0.10;;
62709;SDS011;48770;51.624;5.886;2023-04-07T03:10:16;0.65;;;0.17;;
62709;SDS011;48770;51.624;5.886;2023-04-07T03:12:42;0.10;;;0.00;;
62709;SDS011;48770;51.624;5.886;2023-04-07T03:15:08;0.40;;;0.10;;
62709;SDS011;48770;51.624;5.886;2023-04-07T03:17:33;1.20;;;0.20;;
62709;SDS011;48770;51.624;5.886;2023-04-07T03:19:59;0.10;;;0.10;;
62709;SDS011;48770;51.624;5.886;2023-04-07T03:22:24;0.25;;;0.10;;
62709;SDS011;48770;51.624;5.886;2023-04-07T03:24:50;0.10;;;0.08;;
62709;SDS011;48770;51.624;5.886;2023-04-07T03:27:15;0.20;;;0.10;;
62709;SDS011;48770;51.624;5.886;2023-04-07T03:29:41;0.20;;;0.00;;
62709;SDS011;48770;51.624;5.886;2023-04-07T03:32:07;0.75;;;0.10;;
62709;SDS011;48770;51.624;5.886;2023-04-07T03:34:32;0.20;;;0.13;;
62709;SDS011;48770;51.624;5.886;2023-04-07T03:36:57;0.22;;;0.17;;
62709;SDS011;48770;51.624;5.886;2023-04-07T03:39:22;0.00;;;0.00;;
62709;SDS011;48770;51.624;5.886;2023-04-07T03:41:48;0.10;;;0.05;;
62709;SDS011;48770;51.624;5.886;2023-04-07T03:44:13;0.10;;;0.10;;
62709;SDS011;48770;51.624;5.886;2023-04-07T03:46:38;0.10;;;0.05;;
62709;SDS011;48770;51.624;5.886;2023-04-07T03:49:04;0.00;;;0.00;;
62709;SDS011;48770;51.624;5.886;2023-04-07T03:51:30;0.05;;;0.00;;
62709;SDS011;48770;51.624;5.886;2023-04-07T03:53:56;0.05;;;0.00;;
62709;SDS011;48770;51.624;5.886;2023-04-07T03:56:22;0.17;;;0.10;;
62709;SDS011;48770;51.624;5.886;2023-04-07T03:58:48;0.20;;;0.00;;
62709;SDS011;48770;51.624;5.886;2023-04-07T04:01:14;0.10;;;0.10;;
62709;SDS011;48770;51.624;5.886;2023-04-07T04:03:40;0.13;;;0.10;;
62709;SDS011;48770;51.624;5.886;2023-04-07T04:06:05;0.00;;;0.00;;
62709;SDS011;48770;51.624;5.886;2023-04-07T04:08:30;0.30;;;0.10;;
62709;SDS011;48770;51.624;5.886;2023-04-07T04:10:56;0.10;;;0.00;;
62709;SDS011;48770;51.624;5.886;2023-04-07T04:13:21;0.20;;;0.10;;
62709;SDS011;48770;51.624;5.886;2023-04-07T04:15:47;0.20;;;0.10;;
62709;SDS011;48770;51.624;5.886;2023-04-07T04:18:12;0.10;;;0.10;;
62709;SDS011;48770;51.624;5.886;2023-04-07T04:20:37;0.10;;;0.05;;
62709;SDS011;48770;51.624;5.886;2023-04-07T04:23:03;0.30;;;0.10;;
62709;SDS011;48770;51.624;5.886;2023-04-07T04:25:28;0.30;;;0.10;;
62709;SDS011;48770;51.624;5.886;2023-04-07T04:27:53;0.30;;;0.10;;
62709;SDS011;48770;51.624;5.886;2023-04-07T04:30:19;0.10;;;0.10;;
62709;SDS011;48770;51.624;5.886;2023-04-07T04:32:44;0.20;;;0.10;;
62709;SDS011;48770;51.624;5.886;2023-04-07T04:35:09;0.25;;;0.10;;
62709;SDS011;48770;51.624;5.886;2023-04-07T04:37:35;0.10;;;0.10;;
62709;SDS011;48770;51.624;5.886;2023-04-07T04:40:00;0.40;;;0.15;;
62709;SDS011;48770;51.624;5.886;2023-04-07T04:42:26;0.00;;;0.00;;
62709;SDS011;48770;51.624;5.886;2023-04-07T04:44:52;0.08;;;0.08;;
62709;SDS011;48770;51.624;5.886;2023-04-07T04:47:17;0.20;;;0.10;;
62709;SDS011;48770;51.624;5.886;2023-04-07T04:49:42;0.75;;;0.10;;
62709;SDS011;48770;51.624;5.886;2023-04-07T04:52:08;0.10;;;0.10;;
62709;SDS011;48770;51.624;5.886;2023-04-07T04:54:33;0.35;;;0.00;;
62709;SDS011;48770;51.624;5.886;2023-04-07T04:56:58;0.20;;;0.10;;
62709;SDS011;48770;51.624;5.886;2023-04-07T04:59:25;0.45;;;0.10;;
62709;SDS011;48770;51.624;5.886;2023-04-07T05:01:51;0.30;;;0.00;;
62709;SDS011;48770;51.624;5.886;2023-04-07T05:04:16;0.25;;;0.10;;
62709;SDS011;48770;51.624;5.886;2023-04-07T05:06:41;0.10;;;0.10;;
62709;SDS011;48770;51.624;5.886;2023-04-07T05:09:08;0.15;;;0.10;;
62709;SDS011;48770;51.624;5.886;2023-04-07T05:11:33;0.40;;;0.10;;
62709;SDS011;48770;51.624;5.886;2023-04-07T05:13:58;0.10;;;0.10;;
62709;SDS011;48770;51.624;5.886;2023-04-07T05:16:23;0.50;;;0.10;;
62709;SDS011;48770;51.624;5.886;2023-04-07T05:18:49;0.30;;;0.05;;
62709;SDS011;48770;51.624;5.886;2023-04-07T05:21:14;0.10;;;0.00;;
62709;SDS011;48770;51.624;5.886;2023-04-07T05:23:40;0.00;;;0.00;;
62709;SDS011;48770;51.624;5.886;2023-04-07T05:26:05;0.10;;;0.00;;
62709;SDS011;48770;51.624;5.886;2023-04-07T05:28:30;0.30;;;0.10;;
62709;SDS011;48770;51.624;5.886;2023-04-07T05:30:56;0.10;;;0.00;;
62709;SDS011;48770;51.624;5.886;2023-04-07T05:33:21;0.20;;;0.10;;
62709;SDS011;48770;51.624;5.886;2023-04-07T05:35:47;0.00;;;0.00;;
62709;SDS011;48770;51.624;5.886;2023-04-07T05:38:12;0.15;;;0.10;;
62709;SDS011;48770;51.624;5.886;2023-04-07T05:40:38;0.10;;;0.10;;
62709;SDS011;48770;51.624;5.886;2023-04-07T05:43:04;0.05;;;0.05;;
62709;SDS011;48770;51.624;5.886;2023-04-07T05:45:29;0.05;;;0.05;;
62709;SDS011;48770;51.624;5.886;2023-04-07T05:47:55;0.50;;;0.15;;
62709;SDS011;48770;51.624;5.886;2023-04-07T05:50:20;0.10;;;0.05;;
62709;SDS011;48770;51.624;5.886;2023-04-07T05:52:45;0.20;;;0.05;;
62709;SDS011;48770;51.624;5.886;2023-04-07T05:55:11;0.63;;;0.10;;
62709;SDS011;48770;51.624;5.886;2023-04-07T05:57:36;0.40;;;0.10;;
62709;SDS011;48770;51.624;5.886;2023-04-07T06:00:01;0.20;;;0.10;;
62709;SDS011;48770;51.624;5.886;2023-04-07T06:02:28;0.00;;;0.00;;
62709;SDS011;48770;51.624;5.886;2023-04-07T06:04:54;0.00;;;0.00;;
62709;SDS011;48770;51.624;5.886;2023-04-07T06:07:19;0.40;;;0.10;;
62709;SDS011;48770;51.624;5.886;2023-04-07T06:09:44;0.22;;;0.13;;
62709;SDS011;48770;51.624;5.886;2023-04-07T06:12:10;0.68;;;0.20;;
62709;SDS011;48770;51.624;5.886;2023-04-07T06:14:37;0.40;;;0.17;;
62709;SDS011;48770;51.624;5.886;2023-04-07T06:17:03;0.10;;;0.00;;
62709;SDS011;48770;51.624;5.886;2023-04-07T06:19:28;0.28;;;0.10;;
62709;SDS011;48770;51.624;5.886;2023-04-07T06:21:53;0.73;;;0.10;;
62709;SDS011;48770;51.624;5.886;2023-04-07T06:24:18;0.73;;;0.45;;
62709;SDS011;48770;51.624;5.886;2023-04-07T06:26:47;0.32;;;0.10;;
62709;SDS011;48770;51.624;5.886;2023-04-07T06:29:13;0.13;;;0.03;;
62709;SDS011;48770;51.624;5.886;2023-04-07T06:31:38;0.38;;;0.00;;
62709;SDS011;48770;51.624;5.886;2023-04-07T06:34:04;0.13;;;0.00;;
62709;SDS011;48770;51.624;5.886;2023-04-07T06:36:29;0.52;;;0.10;;
62709;SDS011;48770;51.624;5.886;2023-04-07T06:38:55;0.10;;;0.10;;
62709;SDS011;48770;51.624;5.886;2023-04-07T06:41:20;0.10;;;0.10;;
62709;SDS011;48770;51.624;5.886;2023-04-07T06:43:47;0.22;;;0.10;;
62709;SDS011;48770;51.624;5.886;2023-04-07T06:46:15;0.17;;;0.10;;
62709;SDS011;48770;51.624;5.886;2023-04-07T06:48:40;0.20;;;0.10;;
62709;SDS011;48770;51.624;5.886;2023-04-07T06:51:05;0.20;;;0.10;;
62709;SDS011;48770;51.624;5.886;2023-04-07T06:53:32;1.30;;;0.20;;
62709;SDS011;48770;51.624;5.886;2023-04-07T06:56:07;0.50;;;0.10;;
62709;SDS011;48770;51.624;5.886;2023-04-07T06:58:34;0.60;;;0.22;;
62709;SDS011;48770;51.624;5.886;2023-04-07T07:01:01;0.15;;;0.10;;
62709;SDS011;48770;51.624;5.886;2023-04-07T07:03:27;1.75;;;0.20;;
62709;SDS011;48770;51.624;5.886;2023-04-07T07:05:53;1.58;;;0.20;;
62709;SDS011;48770;51.624;5.886;2023-04-07T07:08:20;1.13;;;0.30;;
62709;SDS011;48770;51.624;5.886;2023-04-07T07:10:46;1.88;;;0.45;;
62709;SDS011;48770;51.624;5.886;2023-04-07T07:13:12;0.40;;;0.30;;
62709;SDS011;48770;51.624;5.886;2023-04-07T07:15:37;2.17;;;0.20;;
62709;SDS011;48770;51.624;5.886;2023-04-07T07:18:02;0.85;;;0.20;;
62709;SDS011;48770;51.624;5.886;2023-04-07T07:20:28;1.70;;;0.20;;
62709;SDS011;48770;51.624;5.886;2023-04-07T07:22:53;0.32;;;0.20;;
62709;SDS011;48770;51.624;5.886;2023-04-07T07:25:18;1.08;;;0.15;;
62709;SDS011;48770;51.624;5.886;2023-04-07T07:27:44;2.17;;;1.30;;
62709;SDS011;48770;51.624;5.886;2023-04-07T07:30:09;2.60;;;1.80;;
62709;SDS011;48770;51.624;5.886;2023-04-07T07:32:35;5.05;;;1.70;;
62709;SDS011;48770;51.624;5.886;2023-04-07T07:35:00;7.55;;;1.70;;
62709;SDS011;48770;51.624;5.886;2023-04-07T07:37:26;6.40;;;1.80;;
62709;SDS011;48770;51.624;5.886;2023-04-07T07:39:52;2.67;;;1.63;;
62709;SDS011;48770;51.624;5.886;2023-04-07T07:42:17;4.88;;;1.20;;
62709;SDS011;48770;51.624;5.886;2023-04-07T07:44:42;4.10;;;1.52;;
62709;SDS011;48770;51.624;5.886;2023-04-07T07:47:08;5.88;;;1.60;;
62709;SDS011;48770;51.624;5.886;2023-04-07T07:49:36;3.90;;;1.50;;
62709;SDS011;48770;51.624;5.886;2023-04-07T07:52:02;2.00;;;1.30;;
62709;SDS011;48770;51.624;5.886;2023-04-07T07:54:27;5.50;;;1.80;;
62709;SDS011;48770;51.624;5.886;2023-04-07T07:56:52;2.92;;;1.50;;
62709;SDS011;48770;51.624;5.886;2023-04-07T07:59:18;5.43;;;1.80;;
62709;SDS011;48770;51.624;5.886;2023-04-07T08:01:43;2.42;;;1.40;;
62709;SDS011;48770;51.624;5.886;2023-04-07T08:04:09;4.93;;;1.98;;
62709;SDS011;48770;51.624;5.886;2023-04-07T08:06:34;4.45;;;2.05;;
62709;SDS011;48770;51.624;5.886;2023-04-07T08:09:01;5.68;;;2.25;;
62709;SDS011;48770;51.624;5.886;2023-04-07T08:11:27;3.95;;;1.90;;
62709;SDS011;48770;51.624;5.886;2023-04-07T08:13:52;3.60;;;1.85;;
62709;SDS011;48770;51.624;5.886;2023-04-07T08:16:18;7.38;;;2.75;;
62709;SDS011;48770;51.624;5.886;2023-04-07T08:18:43;6.78;;;3.10;;
62709;SDS011;48770;51.624;5.886;2023-04-07T08:21:09;5.53;;;3.00;;
62709;SDS011;48770;51.624;5.886;2023-04-07T08:23:35;9.77;;;3.38;;
62709;SDS011;48770;51.624;5.886;2023-04-07T08:26:00;5.32;;;3.42;;
62709;SDS011;48770;51.624;5.886;2023-04-07T08:28:25;5.55;;;3.67;;
62709;SDS011;48770;51.624;5.886;2023-04-07T08:30:50;4.95;;;2.95;;
62709;SDS011;48770;51.624;5.886;2023-04-07T08:33:16;6.18;;;3.45;;
62709;SDS011;48770;51.624;5.886;2023-04-07T08:35:41;5.43;;;3.22;;
62709;SDS011;48770;51.624;5.886;2023-04-07T08:38:07;6.53;;;3.55;;
62709;SDS011;48770;51.624;5.886;2023-04-07T08:40:33;4.97;;;3.58;;
62709;SDS011;48770;51.624;5.886;2023-04-07T08:42:59;5.50;;;3.03;;
62709;SDS011;48770;51.624;5.886;2023-04-07T08:45:25;5.82;;;2.53;;
62709;SDS011;48770;51.624;5.886;2023-04-07T08:47:52;7.90;;;2.40;;
62709;SDS011;48770;51.624;5.886;2023-04-07T08:50:21;6.00;;;2.30;;
62709;SDS011;48770;51.624;5.886;2023-04-07T08:52:50;5.13;;;2.88;;
62709;SDS011;48770;51.624;5.886;2023-04-07T08:55:18;6.40;;;2.25;;
62709;SDS011;48770;51.624;5.886;2023-04-07T08:57:44;6.32;;;2.13;;
62709;SDS011;48770;51.624;5.886;2023-04-07T09:00:10;5.18;;;2.20;;
62709;SDS011;48770;51.624;5.886;2023-04-07T09:02:38;4.53;;;2.22;;
62709;SDS011;48770;51.624;5.886;2023-04-07T09:05:05;4.15;;;1.90;;
62709;SDS011;48770;51.624;5.886;2023-04-07T09:07:33;5.05;;;1.83;;
62709;SDS011;48770;51.624;5.886;2023-04-07T09:09:59;4.80;;;1.80;;
62709;SDS011;48770;51.624;5.886;2023-04-07T09:12:28;5.30;;;2.58;;
62709;SDS011;48770;51.624;5.886;2023-04-07T09:14:54;5.53;;;2.50;;
62709;SDS011;48770;51.624;5.886;2023-04-07T09:17:19;5.00;;;2.45;;
62709;SDS011;48770;51.624;5.886;2023-04-07T09:19:45;3.80;;;2.75;;
62709;SDS011;48770;51.624;5.886;2023-04-07T09:22:11;5.05;;;2.47;;
62709;SDS011;48770;51.624;5.886;2023-04-07T09:24:38;6.18;;;2.72;;
62709;SDS011;48770;51.624;5.886;2023-04-07T09:27:08;4.85;;;2.88;;
62709;SDS011;48770;51.624;5.886;2023-04-07T09:29:42;4.82;;;2.47;;
62709;SDS011;48770;51.624;5.886;2023-04-07T09:32:08;7.47;;;2.80;;
62709;SDS011;48770;51.624;5.886;2023-04-07T09:34:35;5.00;;;2.53;;
62709;SDS011;48770;51.624;5.886;2023-04-07T09:37:04;5.63;;;2.63;;
62709;SDS011;48770;51.624;5.886;2023-04-07T09:39:30;9.45;;;2.83;;
62709;SDS011;48770;51.624;5.886;2023-04-07T09:41:56;4.18;;;2.53;;
62709;SDS011;48770;51.624;5.886;2023-04-07T09:44:21;4.82;;;2.53;;
62709;SDS011;48770;51.624;5.886;2023-04-07T09:46:53;5.13;;;2.08;;
62709;SDS011;48770;51.624;5.886;2023-04-07T09:49:21;10.07;;;2.50;;
62709;SDS011;48770;51.624;5.886;2023-04-07T09:51:58;6.00;;;1.95;;
62709;SDS011;48770;51.624;5.886;2023-04-07T09:54:38;5.18;;;1.98;;
62709;SDS011;48770;51.624;5.886;2023-04-07T09:57:07;3.67;;;1.65;;
62709;SDS011;48770;51.624;5.886;2023-04-07T09:59:34;3.45;;;1.73;;
62709;SDS011;48770;51.624;5.886;2023-04-07T10:02:01;3.10;;;2.15;;
62709;SDS011;48770;51.624;5.886;2023-04-07T10:04:27;3.78;;;1.70;;
62709;SDS011;48770;51.624;5.886;2023-04-07T10:06:53;4.30;;;1.30;;
62709;SDS011;48770;51.624;5.886;2023-04-07T10:09:22;7.35;;;1.42;;
62709;SDS011;48770;51.624;5.886;2023-04-07T10:11:50;3.45;;;1.60;;
62709;SDS011;48770;51.624;5.886;2023-04-07T10:14:16;3.45;;;1.45;;
62709;SDS011;48770;51.624;5.886;2023-04-07T10:16:43;3.58;;;1.35;;
62709;SDS011;48770;51.624;5.886;2023-04-07T10:19:10;4.20;;;1.48;;
62709;SDS011;48770;51.624;5.886;2023-04-07T10:21:37;1.92;;;1.10;;
62709;SDS011;48770;51.624;5.886;2023-04-07T10:24:08;2.40;;;1.30;;
62709;SDS011;48770;51.624;5.886;2023-04-07T10:26:49;2.92;;;1.38;;
62709;SDS011;48770;51.624;5.886;2023-04-07T10:29:18;3.97;;;1.25;;
62709;SDS011;48770;51.624;5.886;2023-04-07T10:31:45;1.92;;;1.33;;
62709;SDS011;48770;51.624;5.886;2023-04-07T10:34:11;3.95;;;1.52;;
62709;SDS011;48770;51.624;5.886;2023-04-07T10:37:07;3.45;;;1.38;;
62709;SDS011;48770;51.624;5.886;2023-04-07T10:39:38;1.40;;;0.85;;
62709;SDS011;48770;51.624;5.886;2023-04-07T10:42:04;3.95;;;1.20;;
62709;SDS011;48770;51.624;5.886;2023-04-07T10:44:50;2.67;;;1.20;;
62709;SDS011;48770;51.624;5.886;2023-04-07T10:47:15;2.55;;;1.40;;
62709;SDS011;48770;51.624;5.886;2023-04-07T10:50:13;3.03;;;1.00;;
62709;SDS011;48770;51.624;5.886;2023-04-07T10:52:45;2.63;;;1.25;;
62709;SDS011;48770;51.624;5.886;2023-04-07T11:03:30;3.42;;;0.90;;
62709;SDS011;48770;51.624;5.886;2023-04-07T11:06:05;2.10;;;1.20;;
62709;SDS011;48770;51.624;5.886;2023-04-07T11:10:57;1.95;;;1.10;;
62709;SDS011;48770;51.624;5.886;2023-04-07T11:13:22;4.88;;;1.35;;
62709;SDS011;48770;51.624;5.886;2023-04-07T11:15:48;1.80;;;1.17;;
62709;SDS011;48770;51.624;5.886;2023-04-07T11:18:17;2.17;;;0.93;;
62709;SDS011;48770;51.624;5.886;2023-04-07T11:20:49;8.23;;;1.00;;
62709;SDS011;48770;51.624;5.886;2023-04-07T11:23:16;3.00;;;0.95;;
62709;SDS011;48770;51.624;5.886;2023-04-07T11:25:43;3.15;;;1.08;;
62709;SDS011;48770;51.624;5.886;2023-04-07T11:28:10;4.03;;;1.10;;
62709;SDS011;48770;51.624;5.886;2023-04-07T11:30:37;2.03;;;1.27;;
62709;SDS011;48770;51.624;5.886;2023-04-07T11:33:03;1.50;;;0.88;;
62709;SDS011;48770;51.624;5.886;2023-04-07T11:35:28;1.27;;;0.80;;
62709;SDS011;48770;51.624;5.886;2023-04-07T11:38:00;3.08;;;0.80;;
62709;SDS011;48770;51.624;5.886;2023-04-07T11:40:33;3.15;;;1.10;;
62709;SDS011;48770;51.624;5.886;2023-04-07T11:45:26;3.13;;;1.02;;
62709;SDS011;48770;51.624;5.886;2023-04-07T11:47:52;2.17;;;0.90;;
62709;SDS011;48770;51.624;5.886;2023-04-07T11:50:36;3.83;;;1.23;;
62709;SDS011;48770;51.624;5.886;2023-04-07T11:53:02;3.10;;;1.05;;
62709;SDS011;48770;51.624;5.886;2023-04-07T11:55:28;3.92;;;0.98;;
62709;SDS011;48770;51.624;5.886;2023-04-07T11:57:53;3.40;;;1.17;;
62709;SDS011;48770;51.624;5.886;2023-04-07T12:00:19;4.28;;;1.08;;
62709;SDS011;48770;51.624;5.886;2023-04-07T12:02:45;2.15;;;0.93;;
62709;SDS011;48770;51.624;5.886;2023-04-07T12:05:10;2.42;;;0.90;;
62709;SDS011;48770;51.624;5.886;2023-04-07T12:07:37;4.32;;;0.93;;
62709;SDS011;48770;51.624;5.886;2023-04-07T12:10:24;2.83;;;0.90;;
62709;SDS011;48770;51.624;5.886;2023-04-07T12:12:51;1.67;;;0.80;;
62709;SDS011;48770;51.624;5.886;2023-04-07T12:15:17;1.55;;;0.90;;
62709;SDS011;48770;51.624;5.886;2023-04-07T12:17:45;5.50;;;0.82;;
62709;SDS011;48770;51.624;5.886;2023-04-07T12:20:11;2.30;;;1.00;;
62709;SDS011;48770;51.624;5.886;2023-04-07T12:22:37;3.03;;;1.00;;
62709;SDS011;48770;51.624;5.886;2023-04-07T12:25:02;5.78;;;0.95;;
62709;SDS011;48770;51.624;5.886;2023-04-07T12:27:28;2.92;;;1.00;;
62709;SDS011;48770;51.624;5.886;2023-04-07T12:29:53;2.65;;;0.88;;
62709;SDS011;48770;51.624;5.886;2023-04-07T12:32:18;1.50;;;0.75;;
62709;SDS011;48770;51.624;5.886;2023-04-07T12:34:44;3.63;;;1.02;;
62709;SDS011;48770;51.624;5.886;2023-04-07T12:37:09;2.17;;;1.00;;
62709;SDS011;48770;51.624;5.886;2023-04-07T12:39:34;4.03;;;1.25;;
62709;SDS011;48770;51.624;5.886;2023-04-07T12:42:00;2.97;;;1.00;;
62709;SDS011;48770;51.624;5.886;2023-04-07T12:44:25;3.83;;;1.20;;
62709;SDS011;48770;51.624;5.886;2023-04-07T12:46:50;1.38;;;0.70;;
62709;SDS011;48770;51.624;5.886;2023-04-07T12:49:16;3.72;;;0.82;;
62709;SDS011;48770;51.624;5.886;2023-04-07T12:51:41;3.03;;;0.88;;
62709;SDS011;48770;51.624;5.886;2023-04-07T12:54:06;2.90;;;0.88;;
62709;SDS011;48770;51.624;5.886;2023-04-07T12:56:32;3.47;;;0.77;;
62709;SDS011;48770;51.624;5.886;2023-04-07T12:58:57;3.60;;;0.90;;
62709;SDS011;48770;51.624;5.886;2023-04-07T13:01:22;4.70;;;0.90;;
62709;SDS011;48770;51.624;5.886;2023-04-07T13:03:48;3.08;;;0.85;;
62709;SDS011;48770;51.624;5.886;2023-04-07T13:06:13;4.00;;;0.85;;
62709;SDS011;48770;51.624;5.886;2023-04-07T13:08:38;3.67;;;0.77;;
62709;SDS011;48770;51.624;5.886;2023-04-07T13:11:04;3.80;;;0.65;;
62709;SDS011;48770;51.624;5.886;2023-04-07T13:13:30;3.45;;;1.00;;
62709;SDS011;48770;51.624;5.886;2023-04-07T13:15:55;1.95;;;0.77;;
62709;SDS011;48770;51.624;5.886;2023-04-07T13:18:21;4.03;;;0.90;;
62709;SDS011;48770;51.624;5.886;2023-04-07T13:20:46;2.92;;;0.73;;
62709;SDS011;48770;51.624;5.886;2023-04-07T13:23:11;4.38;;;0.85;;
62709;SDS011;48770;51.624;5.886;2023-04-07T13:25:37;2.90;;;0.60;;
62709;SDS011;48770;51.624;5.886;2023-04-07T13:28:02;2.55;;;0.80;;
62709;SDS011;48770;51.624;5.886;2023-04-07T13:30:31;3.08;;;1.02;;
62709;SDS011;48770;51.624;5.886;2023-04-07T13:32:57;1.85;;;0.75;;
62709;SDS011;48770;51.624;5.886;2023-04-07T13:35:22;3.88;;;0.77;;
62709;SDS011;48770;51.624;5.886;2023-04-07T13:37:47;4.03;;;0.80;;
62709;SDS011;48770;51.624;5.886;2023-04-07T13:40:13;4.57;;;0.93;;
62709;SDS011;48770;51.624;5.886;2023-04-07T13:42:38;2.58;;;1.13;;
62709;SDS011;48770;51.624;5.886;2023-04-07T13:45:04;3.03;;;0.82;;
62709;SDS011;48770;51.624;5.886;2023-04-07T13:47:29;2.50;;;0.70;;
62709;SDS011;48770;51.624;5.886;2023-04-07T13:49:58;3.63;;;0.77;;
62709;SDS011;48770;51.624;5.886;2023-04-07T13:52:24;2.60;;;0.80;;
62709;SDS011;48770;51.624;5.886;2023-04-07T13:54:49;2.22;;;0.90;;
62709;SDS011;48770;51.624;5.886;2023-04-07T13:57:15;4.45;;;1.15;;
62709;SDS011;48770;51.624;5.886;2023-04-07T13:59:44;2.63;;;0.90;;
62709;SDS011;48770;51.624;5.886;2023-04-07T14:02:13;2.33;;;0.80;;
62709;SDS011;48770;51.624;5.886;2023-04-07T14:04:39;3.20;;;0.90;;
62709;SDS011;48770;51.624;5.886;2023-04-07T14:07:04;4.22;;;1.15;;
62709;SDS011;48770;51.624;5.886;2023-04-07T14:09:30;4.57;;;1.20;;
62709;SDS011;48770;51.624;5.886;2023-04-07T14:11:55;5.18;;;1.00;;
62709;SDS011;48770;51.624;5.886;2023-04-07T14:14:21;3.28;;;0.77;;
62709;SDS011;48770;51.624;5.886;2023-04-07T14:16:46;2.80;;;1.00;;
62709;SDS011;48770;51.624;5.886;2023-04-07T14:19:14;2.60;;;1.10;;
62709;SDS011;48770;51.624;5.886;2023-04-07T14:21:40;4.15;;;1.17;;
62709;SDS011;48770;51.624;5.886;2023-04-07T14:24:05;4.22;;;1.00;;
62709;SDS011;48770;51.624;5.886;2023-04-07T14:26:30;4.30;;;1.05;;
62709;SDS011;48770;51.624;5.886;2023-04-07T14:28:56;4.00;;;1.27;;
62709;SDS011;48770;51.624;5.886;2023-04-07T14:31:21;7.10;;;1.27;;
62709;SDS011;48770;51.624;5.886;2023-04-07T14:33:46;4.85;;;1.25;;
62709;SDS011;48770;51.624;5.886;2023-04-07T14:36:13;3.17;;;1.10;;
62709;SDS011;48770;51.624;5.886;2023-04-07T14:38:40;2.92;;;1.00;;
62709;SDS011;48770;51.624;5.886;2023-04-07T14:41:06;5.20;;;1.10;;
62709;SDS011;48770;51.624;5.886;2023-04-07T14:43:31;3.70;;;1.17;;
62709;SDS011;48770;51.624;5.886;2023-04-07T14:45:57;3.72;;;0.95;;
62709;SDS011;48770;51.624;5.886;2023-04-07T14:48:23;3.00;;;1.05;;
62709;SDS011;48770;51.624;5.886;2023-04-07T14:50:49;2.45;;;0.95;;
62709;SDS011;48770;51.624;5.886;2023-04-07T14:53:14;3.72;;;1.10;;
62709;SDS011;48770;51.624;5.886;2023-04-07T14:55:40;2.95;;;0.95;;
62709;SDS011;48770;51.624;5.886;2023-04-07T14:58:06;3.03;;;0.90;;
62709;SDS011;48770;51.624;5.886;2023-04-07T15:00:32;2.60;;;0.80;;
62709;SDS011;48770;51.624;5.886;2023-04-07T15:02:57;6.38;;;1.02;;
62709;SDS011;48770;51.624;5.886;2023-04-07T15:05:22;6.70;;;1.05;;